Time,TemperatureF,DewpointF,PressureIn,WindDirection,WindDirectionDegrees,WindSpeedMPH,WindSpeedGustMPH,Humidity,HourlyPrecipIn,Conditions,Clouds,dailyrainin,SoftwareType,DateUTC
2013-01-16 00:04:00,34.5,29.6,30.39,East,90,0.0,0.0,82,0.00,,---,0.00,VWS V14.01,2013-01-16 08:04:00,
2013-01-16 00:09:00,34.5,29.6,30.39,NE,45,0.0,0.0,82,0.00,,---,0.00,VWS V14.01,2013-01-16 08:09:00,
2013-01-16 00:14:00,34.3,29.4,30.39,ENE,68,0.0,0.0,82,0.00,,---,0.00,VWS V14.01,2013-01-16 08:14:00,
2013-01-16 00:19:00,34.3,29.4,30.39,West,270,0.0,0.0,82,0.00,,---,0.00,VWS V14.01,2013-01-16 08:19:00,
2013-01-16 00:24:00,34.2,29.2,30.39,South,180,0.0,0.0,82,0.00,,---,0.00,VWS V14.01,2013-01-16 08:24:00,
2013-01-16 00:29:00,34.2,29.2,30.39,South,180,0.0,0.0,82,0.00,,---,0.00,VWS V14.01,2013-01-16 08:29:00,
2013-01-16 00:34:00,34.0,29.1,30.39,SE,135,0.0,0.0,82,0.00,,---,0.00,VWS V14.01,2013-01-16 08:34:00,
2013-01-16 00:39:00,34.0,29.1,30.39,East,90,0.0,0.0,82,0.00,,---,0.00,VWS V14.01,2013-01-16 08:39:00,
2013-01-16 00:44:00,33.8,29.2,30.39,ESE,112,0.0,2.2,83,0.00,,---,0.00,VWS V14.01,2013-01-16 08:44:00,
2013-01-16 00:49:00,33.8,29.2,30.39,SE,135,0.0,1.3,83,0.00,,---,0.00,VWS V14.01,2013-01-16 08:49:00,
2013-01-16 00:54:00,33.8,29.2,30.39,SE,135,0.0,0.0,83,0.00,,---,0.00,VWS V14.01,2013-01-16 08:54:00,
2013-01-16 00:59:00,33.6,29.0,30.39,NE,45,0.0,0.0,83,0.00,,---,0.00,VWS V14.01,2013-01-16 08:59:00,
2013-01-16 01:04:00,33.6,29.0,30.39,ESE,112,0.0,0.0,83,0.00,,---,0.00,VWS V14.01,2013-01-16 09:04:00,
2013-01-16 01:09:00,33.6,29.0,30.39,SE,135,0.0,0.0,83,0.00,,---,0.00,VWS V14.01,2013-01-16 09:09:00,
2013-01-16 01:15:00,33.4,28.8,30.39,SE,135,0.0,0.0,83,0.00,,---,0.00,VWS V14.01,2013-01-16 09:15:00,
2013-01-16 01:20:00,33.4,28.8,30.39,ESE,112,0.0,0.0,83,0.00,,---,0.00,VWS V14.01,2013-01-16 09:20:00,
2013-01-16 01:25:00,33.4,28.8,30.39,SE,135,0.0,0.0,83,0.00,,---,0.00,VWS V14.01,2013-01-16 09:25:00,
2013-01-16 01:30:00,33.3,28.7,30.39,SE,135,0.0,0.0,83,0.00,,---,0.00,VWS V14.01,2013-01-16 09:30:00,
2013-01-16 01:35:00,33.3,28.7,30.39,ENE,68,0.0,0.0,83,0.00,,---,0.00,VWS V14.01,2013-01-16 09:35:00,
2013-01-16 01:40:00,33.3,28.7,30.39,ENE,68,0.0,0.0,83,0.00,,---,0.00,VWS V14.01,2013-01-16 09:40:00,
2013-01-16 01:45:00,33.1,28.5,30.39,NNE,22,0.0,0.0,83,0.00,,---,0.00,VWS V14.01,2013-01-16 09:45:00,
2013-01-16 01:50:00,33.1,28.5,30.39,NW,315,0.0,0.0,83,0.00,,---,0.00,VWS V14.01,2013-01-16 09:50:00,
2013-01-16 01:55:00,32.9,28.6,30.39,ENE,68,0.9,0.9,84,0.00,,---,0.00,VWS V14.01,2013-01-16 09:55:00,
2013-01-16 02:00:00,32.9,28.6,30.39,ENE,68,0.0,0.0,84,0.00,,---,0.00,VWS V14.01,2013-01-16 10:00:00,
2013-01-16 02:05:00,32.9,28.3,30.39,NE,45,0.0,0.0,83,0.00,,---,0.00,VWS V14.01,2013-01-16 10:05:00,
2013-01-16 02:10:00,32.7,28.1,30.39,ENE,68,0.0,0.0,83,0.00,,---,0.00,VWS V14.01,2013-01-16 10:10:00,
2013-01-16 02:15:00,32.7,28.1,30.39,South,180,0.0,0.9,83,0.00,,---,0.00,VWS V14.01,2013-01-16 10:15:00,
2013-01-16 02:20:00,32.7,28.4,30.39,East,90,0.0,0.0,84,0.00,,---,0.00,VWS V14.01,2013-01-16 10:20:00,
2013-01-16 02:25:00,32.5,28.2,30.39,SE,135,0.0,0.0,84,0.00,,---,0.00,VWS V14.01,2013-01-16 10:25:00,
2013-01-16 02:30:00,32.5,28.2,30.39,SE,135,0.0,0.0,84,0.00,,---,0.00,VWS V14.01,2013-01-16 10:30:00,
2013-01-16 02:35:00,32.5,28.2,30.39,SE,135,0.0,0.0,84,0.00,,---,0.00,VWS V14.01,2013-01-16 10:35:00,
2013-01-16 02:40:00,32.4,28.1,30.39,SE,135,0.0,0.0,84,0.00,,---,0.00,VWS V14.01,2013-01-16 10:40:00,
2013-01-16 02:45:00,32.4,28.1,30.39,SE,135,0.0,0.0,84,0.00,,---,0.00,VWS V14.01,2013-01-16 10:45:00,
2013-01-16 02:50:00,32.4,28.1,30.39,East,90,0.0,1.6,84,0.00,,---,0.00,VWS V14.01,2013-01-16 10:50:00,
2013-01-16 02:55:00,32.4,28.1,30.39,SSE,158,0.0,0.0,84,0.00,,---,0.00,VWS V14.01,2013-01-16 10:55:00,
2013-01-16 03:00:00,32.4,28.1,30.39,ESE,112,1.6,1.6,84,0.00,,---,0.00,VWS V14.01,2013-01-16 11:00:00,
2013-01-16 03:05:00,32.4,28.1,30.39,ESE,112,0.0,1.1,84,0.00,,---,0.00,VWS V14.01,2013-01-16 11:05:00,
2013-01-16 03:10:00,32.2,27.9,30.39,ESE,112,0.0,0.0,84,0.00,,---,0.00,VWS V14.01,2013-01-16 11:10:00,
2013-01-16 03:15:00,32.2,27.9,30.39,NNW,338,0.0,0.0,84,0.00,,---,0.00,VWS V14.01,2013-01-16 11:15:00,
2013-01-16 03:20:00,32.2,27.9,30.39,East,90,0.0,0.0,84,0.00,,---,0.00,VWS V14.01,2013-01-16 11:20:00,
2013-01-16 03:25:00,32.2,27.9,30.39,ENE,68,0.0,0.0,84,0.00,,---,0.00,VWS V14.01,2013-01-16 11:25:00,
2013-01-16 03:30:00,32.2,27.9,30.39,NNE,22,0.0,0.0,84,0.00,,---,0.00,VWS V14.01,2013-01-16 11:30:00,
2013-01-16 03:35:00,32.2,27.9,30.39,NNE,22,0.0,0.0,84,0.00,,---,0.00,VWS V14.01,2013-01-16 11:35:00,
2013-01-16 03:40:00,32.0,27.7,30.39,NE,45,0.0,0.0,84,0.00,,---,0.00,VWS V14.01,2013-01-16 11:40:00,
2013-01-16 03:45:00,32.0,27.7,30.39,NNE,22,0.0,0.0,84,0.00,,---,0.00,VWS V14.01,2013-01-16 11:45:00,
2013-01-16 03:50:00,31.8,27.5,30.39,NW,315,0.0,0.0,84,0.00,,---,0.00,VWS V14.01,2013-01-16 11:50:00,
2013-01-16 03:55:00,31.8,27.5,30.39,South,180,0.0,0.0,84,0.00,,---,0.00,VWS V14.01,2013-01-16 11:55:00,
2013-01-16 04:00:00,31.6,27.7,30.39,South,180,0.0,0.0,85,0.00,,---,0.00,VWS V14.01,2013-01-16 12:00:00,
2013-01-16 04:05:00,31.6,27.7,30.39,South,180,0.0,0.0,85,0.00,,---,0.00,VWS V14.01,2013-01-16 12:05:00,
2013-01-16 04:10:00,31.6,27.7,30.39,East,90,0.0,0.0,85,0.00,,---,0.00,VWS V14.01,2013-01-16 12:10:00,
2013-01-16 04:15:00,31.6,27.7,30.39,East,90,0.0,0.0,85,0.00,,---,0.00,VWS V14.01,2013-01-16 12:15:00,
2013-01-16 04:20:00,31.6,27.7,30.39,SE,135,0.0,0.0,85,0.00,,---,0.00,VWS V14.01,2013-01-16 12:20:00,
2013-01-16 04:25:00,31.6,27.7,30.39,ENE,68,0.0,0.0,85,0.00,,---,0.00,VWS V14.01,2013-01-16 12:25:00,
2013-01-16 04:30:00,31.5,27.5,30.39,ENE,68,0.0,0.0,85,0.00,,---,0.00,VWS V14.01,2013-01-16 12:30:00,
2013-01-16 04:35:00,31.5,27.5,30.39,West,270,0.0,0.0,85,0.00,,---,0.00,VWS V14.01,2013-01-16 12:35:00,
2013-01-16 04:40:00,31.5,27.5,30.39,West,270,0.0,0.0,85,0.00,,---,0.00,VWS V14.01,2013-01-16 12:40:00,
2013-01-16 04:45:00,31.3,27.3,30.39,South,180,0.0,0.0,85,0.00,,---,0.00,VWS V14.01,2013-01-16 12:45:00,
2013-01-16 04:50:00,31.3,27.3,30.39,SSE,158,0.0,0.0,85,0.00,,---,0.00,VWS V14.01,2013-01-16 12:50:00,
2013-01-16 04:56:00,31.1,27.1,30.39,SSE,158,0.0,0.0,85,0.00,,---,0.00,VWS V14.01,2013-01-16 12:56:00,
2013-01-16 05:01:00,31.1,27.1,30.39,SE,135,2.0,2.5,85,0.00,,---,0.00,VWS V14.01,2013-01-16 13:01:00,
2013-01-16 05:06:00,31.1,27.1,30.39,East,90,0.0,0.0,85,0.00,,---,0.00,VWS V14.01,2013-01-16 13:06:00,
2013-01-16 05:11:00,31.1,27.1,30.39,ESE,112,0.0,0.0,85,0.00,,---,0.00,VWS V14.01,2013-01-16 13:11:00,
2013-01-16 05:16:00,31.1,27.1,30.39,SE,135,0.0,0.0,85,0.00,,---,0.00,VWS V14.01,2013-01-16 13:16:00,
2013-01-16 05:21:00,30.9,27.0,30.39,East,90,0.0,0.0,85,0.00,,---,0.00,VWS V14.01,2013-01-16 13:21:00,
2013-01-16 05:26:00,30.9,27.0,30.36,NE,45,0.0,0.0,85,0.00,,---,0.00,VWS V14.01,2013-01-16 13:26:00,
2013-01-16 05:31:00,30.9,27.0,30.36,ENE,68,0.0,0.0,85,0.00,,---,0.00,VWS V14.01,2013-01-16 13:31:00,
2013-01-16 05:36:00,30.9,27.0,30.36,North,0,0.0,0.0,85,0.00,,---,0.00,VWS V14.01,2013-01-16 13:36:00,
2013-01-16 05:41:00,30.9,27.0,30.36,ESE,112,0.0,0.0,85,0.00,,---,0.00,VWS V14.01,2013-01-16 13:41:00,
2013-01-16 05:46:00,30.7,26.8,30.36,ESE,112,0.0,0.0,85,0.00,,---,0.00,VWS V14.01,2013-01-16 13:46:00,
2013-01-16 05:51:00,30.7,26.8,30.36,ESE,112,0.0,0.0,85,0.00,,---,0.00,VWS V14.01,2013-01-16 13:51:00,
2013-01-16 05:56:00,30.7,26.8,30.36,SE,135,0.0,0.0,85,0.00,,---,0.00,VWS V14.01,2013-01-16 13:56:00,
2013-01-16 06:01:00,30.7,26.8,30.36,ESE,112,0.0,0.0,85,0.00,,---,0.00,VWS V14.01,2013-01-16 14:01:00,
2013-01-16 06:06:00,30.7,26.8,30.36,ENE,68,0.0,0.0,85,0.00,,---,0.00,VWS V14.01,2013-01-16 14:06:00,
2013-01-16 06:11:00,30.7,26.8,30.36,North,0,0.0,0.0,85,0.00,,---,0.00,VWS V14.01,2013-01-16 14:11:00,
2013-01-16 06:16:00,30.6,26.6,30.36,NW,315,0.0,0.0,85,0.00,,---,0.00,VWS V14.01,2013-01-16 14:16:00,
2013-01-16 06:21:00,30.6,26.6,30.36,North,0,0.0,0.0,85,0.00,,---,0.00,VWS V14.01,2013-01-16 14:21:00,
2013-01-16 06:26:00,30.6,26.6,30.36,NNE,22,0.0,0.0,85,0.00,,---,0.00,VWS V14.01,2013-01-16 14:26:00,
2013-01-16 06:31:00,30.4,26.4,30.36,North,0,0.0,0.0,85,0.00,,---,0.00,VWS V14.01,2013-01-16 14:31:00,
2013-01-16 06:36:00,30.4,26.4,30.36,NE,45,0.0,0.0,85,0.00,,---,0.00,VWS V14.01,2013-01-16 14:36:00,
2013-01-16 06:41:00,30.4,26.4,30.36,NW,315,0.0,0.0,85,0.00,,---,0.00,VWS V14.01,2013-01-16 14:41:00,
2013-01-16 06:46:00,30.4,26.7,30.36,North,0,0.0,0.0,86,0.00,,---,0.00,VWS V14.01,2013-01-16 14:46:00,
2013-01-16 06:51:00,30.4,26.7,30.36,SE,135,0.0,0.0,86,0.00,,---,0.00,VWS V14.01,2013-01-16 14:51:00,
2013-01-16 06:56:00,30.2,26.5,30.36,South,180,0.0,0.0,86,0.00,,---,0.00,VWS V14.01,2013-01-16 14:56:00,
2013-01-16 07:01:00,30.2,26.5,30.36,SE,135,0.0,0.0,86,0.00,,---,0.00,VWS V14.01,2013-01-16 15:01:00,
2013-01-16 07:06:00,30.4,26.7,30.36,East,90,1.3,3.1,86,0.00,,---,0.00,VWS V14.01,2013-01-16 15:06:00,
2013-01-16 07:11:00,30.4,26.7,30.36,South,180,0.0,0.0,86,0.00,,---,0.00,VWS V14.01,2013-01-16 15:11:00,
2013-01-16 07:16:00,30.2,26.8,30.36,ENE,68,0.0,0.0,87,0.00,,---,0.00,VWS V14.01,2013-01-16 15:16:00,
2013-01-16 07:21:00,30.2,26.5,30.36,NE,45,0.0,0.0,86,0.00,,---,0.00,VWS V14.01,2013-01-16 15:21:00,
2013-01-16 07:26:00,30.2,26.5,30.36,NNW,338,0.0,0.0,86,0.00,,---,0.00,VWS V14.01,2013-01-16 15:26:00,
2013-01-16 07:31:00,30.2,26.8,30.36,NNW,338,0.0,0.0,87,0.00,,---,0.00,VWS V14.01,2013-01-16 15:31:00,
2013-01-16 07:36:00,30.2,26.8,30.39,West,270,0.0,0.0,87,0.00,,---,0.00,VWS V14.01,2013-01-16 15:36:00,
2013-01-16 07:41:00,30.2,26.8,30.39,South,180,0.0,0.0,87,0.00,,---,0.00,VWS V14.01,2013-01-16 15:41:00,
2013-01-16 07:46:00,30.2,26.8,30.39,South,180,0.0,0.0,87,0.00,,---,0.00,VWS V14.01,2013-01-16 15:46:00,
2013-01-16 07:51:00,30.2,26.8,30.39,ESE,112,0.0,0.0,87,0.00,,---,0.00,VWS V14.01,2013-01-16 15:51:00,
2013-01-16 07:56:00,30.2,26.8,30.39,ESE,112,0.0,0.0,87,0.00,,---,0.00,VWS V14.01,2013-01-16 15:56:00,
2013-01-16 08:01:00,30.2,26.8,30.39,NNW,338,0.0,0.0,87,0.00,,---,0.00,VWS V14.01,2013-01-16 16:01:00,
2013-01-16 08:06:00,30.2,26.8,30.39,NW,315,0.0,0.0,87,0.00,,---,0.00,VWS V14.01,2013-01-16 16:06:00,
2013-01-16 08:11:00,30.2,26.8,30.39,NNW,338,0.0,0.0,87,0.00,,---,0.00,VWS V14.01,2013-01-16 16:11:00,
2013-01-16 08:16:00,30.2,26.8,30.39,NNE,22,0.0,0.0,87,0.00,,---,0.00,VWS V14.01,2013-01-16 16:16:00,
2013-01-16 08:22:00,30.2,26.8,30.39,NNE,22,0.0,0.0,87,0.00,,---,0.00,VWS V14.01,2013-01-16 16:22:00,
2013-01-16 08:27:00,30.2,26.8,30.39,NW,315,0.0,0.0,87,0.00,,---,0.00,VWS V14.01,2013-01-16 16:27:00,
2013-01-16 08:32:00,30.4,26.7,30.39,NW,315,0.0,0.0,86,0.00,,---,0.00,VWS V14.01,2013-01-16 16:32:00,
2013-01-16 08:37:00,30.4,26.7,30.39,NNW,338,0.0,0.0,86,0.00,,---,0.00,VWS V14.01,2013-01-16 16:37:00,
2013-01-16 08:42:00,30.6,26.9,30.39,NNW,338,0.0,0.0,86,0.00,,---,0.00,VWS V14.01,2013-01-16 16:42:00,
2013-01-16 08:47:00,30.6,26.9,30.39,North,0,1.3,1.3,86,0.00,,---,0.00,VWS V14.01,2013-01-16 16:47:00,
2013-01-16 08:52:00,30.7,27.3,30.39,NNE,22,0.0,0.0,87,0.00,,---,0.00,VWS V14.01,2013-01-16 16:52:00,
2013-01-16 08:57:00,30.7,27.3,30.39,NNE,22,0.0,0.0,87,0.00,,---,0.00,VWS V14.01,2013-01-16 16:57:00,
2013-01-16 09:02:00,31.1,27.7,30.39,NNE,22,0.0,0.0,87,0.00,,---,0.00,VWS V14.01,2013-01-16 17:02:00,
2013-01-16 09:07:00,31.3,27.9,30.39,West,270,0.0,0.0,87,0.00,,---,0.00,VWS V14.01,2013-01-16 17:07:00,
2013-01-16 09:12:00,31.6,27.9,30.39,WNW,292,0.0,0.0,86,0.00,,---,0.00,VWS V14.01,2013-01-16 17:12:00,
2013-01-16 09:17:00,32.0,28.3,30.39,SE,135,0.0,0.0,86,0.00,,---,0.00,VWS V14.01,2013-01-16 17:17:00,
2013-01-16 09:22:00,32.4,28.6,30.39,South,180,0.0,0.0,86,0.00,,---,0.00,VWS V14.01,2013-01-16 17:22:00,
2013-01-16 09:27:00,32.5,28.8,30.39,West,270,0.0,0.0,86,0.00,,---,0.00,VWS V14.01,2013-01-16 17:27:00,
2013-01-16 09:32:00,32.9,29.2,30.39,South,180,1.6,2.5,86,0.00,,---,0.00,VWS V14.01,2013-01-16 17:32:00,
2013-01-16 09:37:00,33.4,29.7,30.39,SSW,202,0.0,0.0,86,0.00,,---,0.00,VWS V14.01,2013-01-16 17:37:00,
2013-01-16 09:42:00,34.0,30.0,30.39,South,180,1.6,1.6,85,0.00,,---,0.00,VWS V14.01,2013-01-16 17:42:00,
2013-01-16 09:47:00,34.3,30.3,30.39,West,270,0.0,0.0,85,0.00,,---,0.00,VWS V14.01,2013-01-16 17:47:00,
2013-01-16 09:52:00,34.5,30.5,30.39,South,180,0.0,0.0,85,0.00,,---,0.00,VWS V14.01,2013-01-16 17:52:00,
2013-01-16 09:57:00,34.7,30.7,30.39,SW,225,2.5,2.5,85,0.00,,---,0.00,VWS V14.01,2013-01-16 17:57:00,
2013-01-16 10:02:00,35.2,31.2,30.39,West,270,0.0,0.0,85,0.00,,---,0.00,VWS V14.01,2013-01-16 18:02:00,
2013-01-16 10:07:00,35.2,31.2,30.39,NW,315,0.0,0.0,85,0.00,,---,0.00,VWS V14.01,2013-01-16 18:07:00,
2013-01-16 10:12:00,35.4,31.4,30.39,WNW,292,0.0,0.0,85,0.00,,---,0.00,VWS V14.01,2013-01-16 18:12:00,
2013-01-16 10:17:00,35.8,31.7,30.39,NNW,338,0.0,0.0,85,0.00,,---,0.00,VWS V14.01,2013-01-16 18:17:00,
2013-01-16 10:22:00,36.3,32.2,30.36,NW,315,1.1,1.1,85,0.00,,---,0.00,VWS V14.01,2013-01-16 18:22:00,
2013-01-16 10:27:00,36.5,32.1,30.36,NW,315,0.9,2.5,84,0.00,,---,0.00,VWS V14.01,2013-01-16 18:27:00,
2013-01-16 10:32:00,36.9,32.5,30.36,West,270,1.6,1.6,84,0.00,,---,0.00,VWS V14.01,2013-01-16 18:32:00,
2013-01-16 10:37:00,37.2,32.8,30.36,NE,45,0.0,0.0,84,0.00,,---,0.00,VWS V14.01,2013-01-16 18:37:00,
2013-01-16 10:42:00,37.6,33.2,30.36,NW,315,0.9,2.0,84,0.00,,---,0.00,VWS V14.01,2013-01-16 18:42:00,
2013-01-16 10:47:00,38.1,33.7,30.36,NW,315,3.4,3.4,84,0.00,,---,0.00,VWS V14.01,2013-01-16 18:47:00,
2013-01-16 10:52:00,38.8,34.4,30.36,NNW,338,3.8,3.8,84,0.00,,---,0.00,VWS V14.01,2013-01-16 18:52:00,
2013-01-16 10:57:00,39.2,34.5,30.36,NW,315,3.4,3.4,83,0.00,,---,0.00,VWS V14.01,2013-01-16 18:57:00,
2013-01-16 11:02:00,39.6,34.8,30.36,NNW,338,0.0,0.0,83,0.00,,---,0.00,VWS V14.01,2013-01-16 19:02:00,
2013-01-16 11:07:00,40.3,35.5,30.36,NNE,22,0.0,1.6,83,0.00,,---,0.00,VWS V14.01,2013-01-16 19:07:00,
2013-01-16 11:12:00,41.0,35.9,30.36,South,180,0.0,0.0,82,0.00,,---,0.00,VWS V14.01,2013-01-16 19:12:00,
2013-01-16 11:17:00,41.7,36.3,30.36,NNW,338,2.0,2.0,81,0.00,,---,0.00,VWS V14.01,2013-01-16 19:17:00,
2013-01-16 11:22:00,42.4,37.0,30.36,NNW,338,0.0,1.1,81,0.00,,---,0.00,VWS V14.01,2013-01-16 19:22:00,
2013-01-16 11:27:00,43.3,37.6,30.36,WNW,292,0.0,0.0,80,0.00,,---,0.00,VWS V14.01,2013-01-16 19:27:00,
2013-01-16 11:32:00,43.9,37.8,30.36,WNW,292,3.6,3.6,79,0.00,,---,0.00,VWS V14.01,2013-01-16 19:32:00,
2013-01-16 11:37:00,44.8,38.3,30.36,WNW,292,1.1,3.4,78,0.00,,---,0.00,VWS V14.01,2013-01-16 19:37:00,
2013-01-16 11:42:00,45.5,39.0,30.36,SW,225,3.8,3.8,78,0.00,,---,0.00,VWS V14.01,2013-01-16 19:42:00,
2013-01-16 11:47:00,46.2,39.4,30.36,NE,45,0.0,3.6,77,0.00,,---,0.00,VWS V14.01,2013-01-16 19:47:00,
2013-01-16 11:52:00,47.1,40.3,30.33,West,270,3.8,3.8,77,0.00,,---,0.00,VWS V14.01,2013-01-16 19:52:00,
2013-01-16 11:57:00,47.7,40.5,30.33,NW,315,0.0,0.0,76,0.00,,---,0.00,VWS V14.01,2013-01-16 19:57:00,
2013-01-16 12:02:00,48.2,41.0,30.33,NNW,338,0.0,0.0,76,0.00,,---,0.00,VWS V14.01,2013-01-16 20:02:00,
2013-01-16 12:07:00,48.9,41.4,30.33,NNW,338,2.7,3.8,75,0.00,,---,0.00,VWS V14.01,2013-01-16 20:07:00,
2013-01-16 12:12:00,49.6,41.7,30.33,NNW,338,2.0,2.0,74,0.00,,---,0.00,VWS V14.01,2013-01-16 20:12:00,
2013-01-16 12:17:00,50.2,41.9,30.33,North,0,2.5,4.0,73,0.00,,---,0.00,VWS V14.01,2013-01-16 20:17:00,
2013-01-16 12:22:00,50.7,42.4,30.33,NW,315,0.0,0.0,73,0.00,,---,0.00,VWS V14.01,2013-01-16 20:22:00,
2013-01-16 12:27:00,51.6,42.9,30.33,North,0,2.5,2.5,72,0.00,,---,0.00,VWS V14.01,2013-01-16 20:27:00,
2013-01-16 12:32:00,52.0,43.2,30.33,NNW,338,0.0,0.0,72,0.00,,---,0.00,VWS V14.01,2013-01-16 20:32:00,
2013-01-16 12:37:00,52.5,43.8,30.30,West,270,1.3,2.5,72,0.00,,---,0.00,VWS V14.01,2013-01-16 20:37:00,
2013-01-16 12:42:00,53.2,44.1,30.30,West,270,2.7,2.7,71,0.00,,---,0.00,VWS V14.01,2013-01-16 20:42:00,
2013-01-16 12:48:00,53.6,44.1,30.30,WNW,292,2.2,2.2,70,0.00,,---,0.00,VWS V14.01,2013-01-16 20:48:00,
2013-01-16 12:53:00,54.3,44.8,30.30,West,270,2.7,2.7,70,0.00,,---,0.00,VWS V14.01,2013-01-16 20:53:00,
2013-01-16 12:58:00,54.7,44.7,30.30,NW,315,5.8,5.8,69,0.00,,---,0.00,VWS V14.01,2013-01-16 20:58:00,
2013-01-16 13:03:00,55.0,45.1,30.30,SW,225,0.9,2.5,69,0.00,,---,0.00,VWS V14.01,2013-01-16 21:03:00,
2013-01-16 13:08:00,55.6,45.2,30.30,NNE,22,0.0,0.0,68,0.00,,---,0.00,VWS V14.01,2013-01-16 21:08:00,
2013-01-16 13:13:00,56.1,45.7,30.30,WNW,292,3.8,3.8,68,0.00,,---,0.00,VWS V14.01,2013-01-16 21:13:00,
2013-01-16 13:18:00,56.5,45.7,30.30,WNW,292,1.3,2.2,67,0.00,,---,0.00,VWS V14.01,2013-01-16 21:18:00,
2013-01-16 13:23:00,56.8,46.0,30.27,West,270,0.0,0.0,67,0.00,,---,0.00,VWS V14.01,2013-01-16 21:23:00,
2013-01-16 13:28:00,56.8,45.6,30.27,NNW,338,1.6,1.6,66,0.00,,---,0.00,VWS V14.01,2013-01-16 21:28:00,
2013-01-16 13:33:00,57.6,46.3,30.27,North,0,2.0,2.2,66,0.00,,---,0.00,VWS V14.01,2013-01-16 21:33:00,
2013-01-16 13:38:00,57.7,46.5,30.27,WNW,292,1.1,1.1,66,0.00,,---,0.00,VWS V14.01,2013-01-16 21:38:00,
2013-01-16 13:43:00,58.1,46.8,30.27,NW,315,3.6,3.6,66,0.00,,---,0.00,VWS V14.01,2013-01-16 21:43:00,
2013-01-16 13:48:00,60.6,48.0,30.27,South,180,1.3,3.6,63,0.00,,---,0.00,VWS V14.01,2013-01-16 21:48:00,
2013-01-16 13:53:00,61.9,48.7,30.27,WNW,292,3.1,3.1,62,0.00,,---,0.00,VWS V14.01,2013-01-16 21:53:00,
2013-01-16 13:58:00,62.2,49.5,30.27,West,270,2.9,2.9,63,0.00,,---,0.00,VWS V14.01,2013-01-16 21:58:00,
2013-01-16 14:03:00,63.1,49.9,30.27,West,270,0.9,3.1,62,0.00,,---,0.00,VWS V14.01,2013-01-16 22:03:00,
2013-01-16 14:08:00,63.5,49.8,30.27,West,270,2.0,2.0,61,0.00,,---,0.00,VWS V14.01,2013-01-16 22:08:00,
2013-01-16 14:13:00,63.9,50.2,30.27,West,270,0.0,3.6,61,0.00,,---,0.00,VWS V14.01,2013-01-16 22:13:00,
2013-01-16 14:18:00,64.2,50.1,30.27,SW,225,0.0,0.0,60,0.00,,---,0.00,VWS V14.01,2013-01-16 22:18:00,
2013-01-16 14:23:00,64.4,49.8,30.27,WNW,292,0.0,0.0,59,0.00,,---,0.00,VWS V14.01,2013-01-16 22:23:00,
2013-01-16 14:28:00,63.0,48.9,30.27,WNW,292,0.0,3.1,60,0.00,,---,0.00,VWS V14.01,2013-01-16 22:28:00,
2013-01-16 14:33:00,62.8,48.3,30.27,NW,315,0.0,3.4,59,0.00,,---,0.00,VWS V14.01,2013-01-16 22:33:00,
2013-01-16 14:38:00,62.8,49.2,30.27,SE,135,0.0,0.0,61,0.00,,---,0.00,VWS V14.01,2013-01-16 22:38:00,
2013-01-16 14:43:00,63.0,49.3,30.27,NW,315,3.1,3.8,61,0.00,,---,0.00,VWS V14.01,2013-01-16 22:43:00,
2013-01-16 14:48:00,62.4,48.4,30.27,West,270,0.9,4.0,60,0.00,,---,0.00,VWS V14.01,2013-01-16 22:48:00,
2013-01-16 14:53:00,62.2,47.8,30.27,NNW,338,0.0,1.1,59,0.00,,---,0.00,VWS V14.01,2013-01-16 22:53:00,
2013-01-16 14:58:00,62.1,48.0,30.27,South,180,0.0,0.0,60,0.00,,---,0.00,VWS V14.01,2013-01-16 22:58:00,
2013-01-16 15:03:00,62.2,47.8,30.27,West,270,0.0,0.0,59,0.00,,---,0.00,VWS V14.01,2013-01-16 23:03:00,
2013-01-16 15:08:00,62.1,48.0,30.27,SE,135,0.0,0.0,60,0.00,,---,0.00,VWS V14.01,2013-01-16 23:08:00,
2013-01-16 15:13:00,61.9,47.4,30.27,South,180,0.0,2.2,59,0.00,,---,0.00,VWS V14.01,2013-01-16 23:13:00,
2013-01-16 15:18:00,61.9,47.0,30.27,SSW,202,0.0,0.0,58,0.00,,---,0.00,VWS V14.01,2013-01-16 23:18:00,
2013-01-16 15:23:00,61.9,47.0,30.27,WNW,292,0.0,1.1,58,0.00,,---,0.00,VWS V14.01,2013-01-16 23:23:00,
2013-01-16 15:28:00,61.7,46.8,30.27,South,180,0.0,2.0,58,0.00,,---,0.00,VWS V14.01,2013-01-16 23:28:00,
2013-01-16 15:33:00,61.0,46.1,30.27,South,180,2.2,2.2,58,0.00,,---,0.00,VWS V14.01,2013-01-16 23:33:00,
2013-01-16 15:38:00,60.4,46.5,30.27,WNW,292,2.0,2.0,60,0.00,,---,0.00,VWS V14.01,2013-01-16 23:38:00,
2013-01-16 15:43:00,59.9,45.5,30.27,West,270,2.2,2.2,59,0.00,,---,0.00,VWS V14.01,2013-01-16 23:43:00,
2013-01-16 15:48:00,59.4,45.5,30.27,West,270,0.0,0.0,60,0.00,,---,0.00,VWS V14.01,2013-01-16 23:48:00,
2013-01-16 15:53:00,58.5,45.1,30.27,WSW,248,0.0,2.7,61,0.00,,---,0.00,VWS V14.01,2013-01-16 23:53:00,
2013-01-16 15:58:00,57.9,44.6,30.27,West,270,0.0,0.0,61,0.00,,---,0.00,VWS V14.01,2013-01-16 23:58:00,
2013-01-16 16:03:00,57.2,44.3,30.27,West,270,2.9,2.9,62,0.00,,---,0.00,VWS V14.01,2013-01-17 00:03:00,
2013-01-16 16:08:00,56.7,44.2,30.27,West,270,2.9,3.6,63,0.00,,---,0.00,VWS V14.01,2013-01-17 00:08:00,
2013-01-16 16:13:00,56.1,43.7,30.27,South,180,0.0,2.9,63,0.00,,---,0.00,VWS V14.01,2013-01-17 00:13:00,
2013-01-16 16:18:00,55.6,43.6,30.27,SW,225,0.0,0.0,64,0.00,,---,0.00,VWS V14.01,2013-01-17 00:18:00,
2013-01-16 16:23:00,55.0,43.9,30.27,South,180,0.0,0.0,66,0.00,,---,0.00,VWS V14.01,2013-01-17 00:23:00,
2013-01-16 16:28:00,54.5,43.8,30.27,South,180,1.6,1.6,67,0.00,,---,0.00,VWS V14.01,2013-01-17 00:28:00,
2013-01-16 16:33:00,54.1,43.4,30.27,SSE,158,2.0,2.0,67,0.00,,---,0.00,VWS V14.01,2013-01-17 00:33:00,
2013-01-16 16:38:00,53.6,43.3,30.27,South,180,0.0,0.0,68,0.00,,---,0.00,VWS V14.01,2013-01-17 00:38:00,
2013-01-16 16:43:00,53.1,43.2,30.27,South,180,0.9,0.9,69,0.00,,---,0.00,VWS V14.01,2013-01-17 00:43:00,
2013-01-16 16:48:00,52.9,43.0,30.27,South,180,0.0,0.0,69,0.00,,---,0.00,VWS V14.01,2013-01-17 00:48:00,
2013-01-16 16:53:00,52.3,42.9,30.27,South,180,0.0,0.0,70,0.00,,---,0.00,VWS V14.01,2013-01-17 00:53:00,
2013-01-16 16:59:00,52.0,42.5,30.27,South,180,0.0,0.0,70,0.00,,---,0.00,VWS V14.01,2013-01-17 00:59:00,
2013-01-16 17:04:00,51.4,42.4,30.27,SSE,158,0.0,0.0,71,0.00,,---,0.00,VWS V14.01,2013-01-17 01:04:00,
2013-01-16 17:09:00,51.1,42.4,30.27,SE,135,0.0,0.0,72,0.00,,---,0.00,VWS V14.01,2013-01-17 01:09:00,
2013-01-16 17:14:00,50.5,41.9,30.27,SE,135,0.0,0.0,72,0.00,,---,0.00,VWS V14.01,2013-01-17 01:14:00,
2013-01-16 17:19:00,50.4,42.0,30.27,SE,135,2.7,2.7,73,0.00,,---,0.00,VWS V14.01,2013-01-17 01:19:00,
2013-01-16 17:24:00,50.0,41.7,30.27,ESE,112,0.0,0.0,73,0.00,,---,0.00,VWS V14.01,2013-01-17 01:24:00,
2013-01-16 17:29:00,49.6,41.7,30.27,ESE,112,1.3,2.5,74,0.00,,---,0.00,VWS V14.01,2013-01-17 01:29:00,
2013-01-16 17:34:00,49.3,41.4,30.27,ESE,112,2.2,2.2,74,0.00,,---,0.00,VWS V14.01,2013-01-17 01:34:00,
2013-01-16 17:39:00,48.9,41.0,30.27,ESE,112,3.1,3.1,74,0.00,,---,0.00,VWS V14.01,2013-01-17 01:39:00,
2013-01-16 17:44:00,48.7,41.2,30.27,ESE,112,3.1,3.1,75,0.00,,---,0.00,VWS V14.01,2013-01-17 01:44:00,
2013-01-16 17:49:00,48.4,40.8,30.27,ENE,68,2.2,2.9,75,0.00,,---,0.00,VWS V14.01,2013-01-17 01:49:00,
2013-01-16 17:54:00,48.0,40.5,30.27,East,90,3.1,3.1,75,0.00,,---,0.00,VWS V14.01,2013-01-17 01:54:00,
2013-01-16 17:59:00,47.7,40.1,30.27,ENE,68,0.9,2.0,75,0.00,,---,0.00,VWS V14.01,2013-01-17 01:59:00,
2013-01-16 18:04:00,47.3,39.8,30.27,ENE,68,0.0,0.0,75,0.00,,---,0.00,VWS V14.01,2013-01-17 02:04:00,
2013-01-16 18:09:00,46.9,39.4,30.27,East,90,0.0,0.0,75,0.00,,---,0.00,VWS V14.01,2013-01-17 02:09:00,
2013-01-16 18:14:00,46.8,39.3,30.27,ENE,68,0.0,0.0,75,0.00,,---,0.00,VWS V14.01,2013-01-17 02:14:00,
2013-01-16 18:19:00,46.6,39.1,30.27,East,90,0.0,2.0,75,0.00,,---,0.00,VWS V14.01,2013-01-17 02:19:00,
2013-01-16 18:24:00,46.2,39.1,30.27,SSE,158,0.0,0.0,76,0.00,,---,0.00,VWS V14.01,2013-01-17 02:24:00,
2013-01-16 18:29:00,46.0,38.9,30.27,East,90,2.2,2.2,76,0.00,,---,0.00,VWS V14.01,2013-01-17 02:29:00,
2013-01-16 18:34:00,45.9,38.7,30.27,ENE,68,0.0,2.2,76,0.00,,---,0.00,VWS V14.01,2013-01-17 02:34:00,
2013-01-16 18:39:00,45.5,38.4,30.27,North,0,0.0,0.0,76,0.00,,---,0.00,VWS V14.01,2013-01-17 02:39:00,
2013-01-16 18:44:00,45.3,38.5,30.27,South,180,0.0,0.0,77,0.00,,---,0.00,VWS V14.01,2013-01-17 02:44:00,
2013-01-16 18:49:00,45.1,38.4,30.27,SSE,158,0.0,0.0,77,0.00,,---,0.00,VWS V14.01,2013-01-17 02:49:00,
2013-01-16 18:54:00,44.8,38.0,30.27,SE,135,0.0,0.0,77,0.00,,---,0.00,VWS V14.01,2013-01-17 02:54:00,
2013-01-16 18:59:00,44.6,37.8,30.27,ESE,112,0.0,0.0,77,0.00,,---,0.00,VWS V14.01,2013-01-17 02:59:00,
2013-01-16 19:04:00,44.2,37.8,30.27,ESE,112,2.5,2.5,78,0.00,,---,0.00,VWS V14.01,2013-01-17 03:04:00,
2013-01-16 19:09:00,44.2,37.8,30.27,East,90,2.5,3.8,78,0.00,,---,0.00,VWS V14.01,2013-01-17 03:09:00,
2013-01-16 19:14:00,44.1,37.7,30.27,ENE,68,0.0,1.6,78,0.00,,---,0.00,VWS V14.01,2013-01-17 03:14:00,
2013-01-16 19:19:00,43.7,37.3,30.27,ENE,68,0.0,0.0,78,0.00,,---,0.00,VWS V14.01,2013-01-17 03:19:00,
2013-01-16 19:24:00,43.5,37.1,30.27,NNE,22,0.0,0.0,78,0.00,,---,0.00,VWS V14.01,2013-01-17 03:24:00,
2013-01-16 19:29:00,43.3,37.0,30.27,WNW,292,0.0,0.0,78,0.00,,---,0.00,VWS V14.01,2013-01-17 03:29:00,
2013-01-16 19:34:00,43.0,36.9,30.27,SW,225,0.0,0.0,79,0.00,,---,0.00,VWS V14.01,2013-01-17 03:34:00,
2013-01-16 19:39:00,42.8,36.8,30.27,SW,225,0.0,0.0,79,0.00,,---,0.00,VWS V14.01,2013-01-17 03:39:00,
2013-01-16 19:44:00,42.6,36.9,30.27,SE,135,0.0,0.0,80,0.00,,---,0.00,VWS V14.01,2013-01-17 03:44:00,
2013-01-16 19:49:00,42.4,36.7,30.27,NE,45,0.0,0.0,80,0.00,,---,0.00,VWS V14.01,2013-01-17 03:49:00,
2013-01-16 19:54:00,42.3,36.5,30.27,NNE,22,0.0,0.0,80,0.00,,---,0.00,VWS V14.01,2013-01-17 03:54:00,
2013-01-16 19:59:00,42.1,36.4,30.27,ENE,68,0.0,0.0,80,0.00,,---,0.00,VWS V14.01,2013-01-17 03:59:00,
2013-01-16 20:04:00,41.9,36.2,30.27,ENE,68,0.0,0.0,80,0.00,,---,0.00,VWS V14.01,2013-01-17 04:04:00,
2013-01-16 20:09:00,41.7,36.0,30.27,SE,135,0.0,0.0,80,0.00,,---,0.00,VWS V14.01,2013-01-17 04:09:00,
2013-01-16 20:14:00,41.5,35.8,30.27,SE,135,0.0,0.0,80,0.00,,---,0.00,VWS V14.01,2013-01-17 04:14:00,
2013-01-16 20:19:00,41.4,35.7,30.27,SE,135,0.0,0.0,80,0.00,,---,0.00,VWS V14.01,2013-01-17 04:19:00,
2013-01-16 20:24:00,41.2,35.8,30.27,ESE,112,0.0,0.0,81,0.00,,---,0.00,VWS V14.01,2013-01-17 04:24:00,
2013-01-16 20:29:00,41.2,35.8,30.27,ESE,112,0.0,0.0,81,0.00,,---,0.00,VWS V14.01,2013-01-17 04:29:00,
2013-01-16 20:34:00,41.0,35.3,30.27,East,90,0.0,0.0,80,0.00,,---,0.00,VWS V14.01,2013-01-17 04:34:00,
2013-01-16 20:39:00,40.8,35.5,30.24,North,0,0.0,0.0,81,0.00,,---,0.00,VWS V14.01,2013-01-17 04:39:00,
2013-01-16 20:45:00,40.6,35.3,30.24,North,0,0.0,0.0,81,0.00,,---,0.00,VWS V14.01,2013-01-17 04:45:00,
2013-01-16 20:50:00,40.5,35.1,30.24,ENE,68,0.0,0.0,81,0.00,,---,0.00,VWS V14.01,2013-01-17 04:50:00,
2013-01-16 20:55:00,40.3,34.9,30.27,NNW,338,0.0,0.0,81,0.00,,---,0.00,VWS V14.01,2013-01-17 04:55:00,
2013-01-16 21:00:00,39.9,34.6,30.27,NNW,338,0.0,0.0,81,0.00,,---,0.00,VWS V14.01,2013-01-17 05:00:00,
2013-01-16 21:05:00,39.7,34.4,30.27,NE,45,0.0,0.0,81,0.00,,---,0.00,VWS V14.01,2013-01-17 05:05:00,
2013-01-16 21:07:00,39.7,34.4,30.24,NE,45,0.0,0.0,81,0.00,,---,0.00,VWS V14.01,2013-01-17 05:07:00,
2013-01-16 21:12:00,39.7,34.4,30.24,SE,135,0.0,0.0,81,0.00,,---,0.00,VWS V14.01,2013-01-17 05:12:00,
2013-01-16 21:17:00,39.6,34.2,30.24,SSE,158,0.0,0.0,81,0.00,,---,0.00,VWS V14.01,2013-01-17 05:17:00,
2013-01-16 21:22:00,39.4,34.3,30.24,ESE,112,0.0,0.0,82,0.00,,---,0.00,VWS V14.01,2013-01-17 05:22:00,
2013-01-16 21:27:00,39.4,34.3,30.24,East,90,0.0,0.0,82,0.00,,---,0.00,VWS V14.01,2013-01-17 05:27:00,
2013-01-16 21:32:00,39.2,34.2,30.24,SE,135,0.0,0.0,82,0.00,,---,0.00,VWS V14.01,2013-01-17 05:32:00,
2013-01-16 21:37:00,39.0,34.0,30.24,ENE,68,0.0,0.0,82,0.00,,---,0.00,VWS V14.01,2013-01-17 05:37:00,
2013-01-16 21:42:00,38.8,33.8,30.24,ENE,68,0.0,0.0,82,0.00,,---,0.00,VWS V14.01,2013-01-17 05:42:00,
2013-01-16 21:47:00,38.8,33.8,30.24,ENE,68,0.0,0.0,82,0.00,,---,0.00,VWS V14.01,2013-01-17 05:47:00,
2013-01-16 21:52:00,38.7,33.7,30.24,ENE,68,0.0,0.0,82,0.00,,---,0.00,VWS V14.01,2013-01-17 05:52:00,
2013-01-16 21:57:00,38.5,33.5,30.24,NE,45,0.0,0.0,82,0.00,,---,0.00,VWS V14.01,2013-01-17 05:57:00,
2013-01-16 22:02:00,38.3,33.3,30.24,ENE,68,0.0,0.0,82,0.00,,---,0.00,VWS V14.01,2013-01-17 06:02:00,
2013-01-16 22:07:00,38.1,33.1,30.24,SE,135,0.0,0.0,82,0.00,,---,0.00,VWS V14.01,2013-01-17 06:07:00,
2013-01-16 22:12:00,38.1,33.1,30.24,ESE,112,0.0,0.0,82,0.00,,---,0.00,VWS V14.01,2013-01-17 06:12:00,
2013-01-16 22:17:00,37.9,33.2,30.24,ENE,68,0.0,0.0,83,0.00,,---,0.00,VWS V14.01,2013-01-17 06:17:00,
2013-01-16 22:23:00,37.9,33.2,30.24,East,90,0.0,0.0,83,0.00,,---,0.00,VWS V14.01,2013-01-17 06:23:00,
2013-01-16 22:28:00,37.8,33.1,30.24,West,270,0.0,0.0,83,0.00,,---,0.00,VWS V14.01,2013-01-17 06:28:00,
2013-01-16 22:33:00,37.6,32.9,30.24,SSE,158,0.0,0.0,83,0.00,,---,0.00,VWS V14.01,2013-01-17 06:33:00,
2013-01-16 22:38:00,37.6,32.9,30.24,ESE,112,0.0,0.0,83,0.00,,---,0.00,VWS V14.01,2013-01-17 06:38:00,
2013-01-16 22:43:00,37.4,32.7,30.24,NE,45,0.0,0.0,83,0.00,,---,0.00,VWS V14.01,2013-01-17 06:43:00,
2013-01-16 22:48:00,37.4,32.7,30.24,ENE,68,0.0,0.0,83,0.00,,---,0.00,VWS V14.01,2013-01-17 06:48:00,
2013-01-16 22:53:00,37.2,32.5,30.24,ESE,112,0.0,0.0,83,0.00,,---,0.00,VWS V14.01,2013-01-17 06:53:00,
2013-01-16 22:58:00,37.0,32.4,30.24,East,90,0.0,0.0,83,0.00,,---,0.00,VWS V14.01,2013-01-17 06:58:00,
2013-01-16 23:03:00,37.0,32.4,30.24,ENE,68,0.0,0.0,83,0.00,,---,0.00,VWS V14.01,2013-01-17 07:03:00,
2013-01-16 23:08:00,36.9,32.2,30.24,NE,45,0.0,0.0,83,0.00,,---,0.00,VWS V14.01,2013-01-17 07:08:00,
2013-01-16 23:13:00,36.9,32.2,30.24,ENE,68,0.0,0.0,83,0.00,,---,0.00,VWS V14.01,2013-01-17 07:13:00,
2013-01-16 23:18:00,36.7,32.3,30.24,SSE,158,0.0,0.0,84,0.00,,---,0.00,VWS V14.01,2013-01-17 07:18:00,
2013-01-16 23:23:00,36.5,32.1,30.24,East,90,0.0,0.9,84,0.00,,---,0.00,VWS V14.01,2013-01-17 07:23:00,
2013-01-16 23:28:00,36.5,32.1,30.24,SE,135,0.0,0.0,84,0.00,,---,0.00,VWS V14.01,2013-01-17 07:28:00,
2013-01-16 23:33:00,36.3,32.0,30.24,ESE,112,0.0,0.0,84,0.00,,---,0.00,VWS V14.01,2013-01-17 07:33:00,
2013-01-16 23:38:00,36.3,32.0,30.24,South,180,0.0,0.0,84,0.00,,---,0.00,VWS V14.01,2013-01-17 07:38:00,
2013-01-16 23:43:00,36.1,31.8,30.24,SSE,158,1.6,1.6,84,0.00,,---,0.00,VWS V14.01,2013-01-17 07:43:00,
2013-01-16 23:48:00,36.1,31.8,30.24,East,90,0.0,0.0,84,0.00,,---,0.00,VWS V14.01,2013-01-17 07:48:00,
2013-01-16 23:53:00,36.1,31.8,30.24,East,90,0.0,0.0,84,0.00,,---,0.00,VWS V14.01,2013-01-17 07:53:00,
2013-01-16 23:58:00,36.0,31.6,30.24,NNE,22,0.0,0.0,84,0.00,,---,0.00,VWS V14.01,2013-01-17 07:58:00,